Aérodrome :
LOGIN :

S'inscrire | Disclaimer

   EN    FR    IT 

 










Légende :    VFR   VFR Marginal   IFR   IFR Intensif   IFR Très Intensif
Visi : 
Plafond : 
>= 8 km
>= 3000ft
5 à 8 km
1000 à 3000 ft
1500m à 5 km
500 à 1000 ft
800 à 1500m
200 à 500 ft
< 800m
< 200 ft
Symboles :   Orages  Brouillard  Fortes neiges  Fortes précipitations  Vent > 20 kt
SIGMETs :   Divers  Orages  Givrage  Turbulence  Onde Orograph.  Cendres Volcan.






- Altitude de l'aérodrome : 538 ft
- Code IATA : TNF


LFPN - Toussus Le Noble

DERNIER METAR :
  • 260600Z AUTO 22007KT 1000 0700 R25R/0800N BCFG VV/// 07/07 Q1023 TEMPO 0300 FG

METARs EXPIRÉS :
  • 260530Z AUTO 22007KT 0900 0600 R25R/0800U FG VV/// 07/07 Q1022 TEMPO 0300 FG
  • 260500Z AUTO 23007KT 0650 0450 R25R/0650U FG VV/// 07/07 Q1022
  • 260430Z AUTO VRB02KT 0800 0650 R25R/0700D FG VV/// 05/05 Q1022
  • 260400Z AUTO 00000KT 0800 0550 R25R/0700N FG VV/// 06/06 Q1022
  • 260330Z AUTO VRB01KT 1300 0650 R25R/0750D BCFG VV/// 06/05 Q1022

TAF TAF LFPN
Valide du 26 à 06h jusqu'au 26 à 15h UTC


260500Z 2606/2615 21006KT 4000 BR BKN003
PROB40
TEMPO 2606/2609 0300 FG VV///
BECMG 2609/2611 7000 NSW BKN010
BECMG 2612/2614 9999 SCT015
ATIS : +33 1 39 56 54 70



MET'MAP, la Météo Aéronautique d'un coup d'oeil ! - Copyright ORBIFLY Décembre 2007 - Disclaimer

ORBIFLY MET'MAP TEAM :

Programmation & Développement : Alexandra Zaïnal
Sur une idée originale de : Baudouin d'Aumeries
Assistance à la programmation : Marc-Olivier Méhu
Soutien technique & logistique : Manuel Goepfert

Contact : metmap@orbifly.com




SOURCES & CREDITS :

   NOAA